createdAt,value
2023-02-01T00:01:13.363Z,99014.69
2023-02-01T00:03:15.786Z,99002.16
2023-02-01T00:05:17.651Z,99004.88
2023-02-01T00:07:19.167Z,99005.72
2023-02-01T00:09:21.810Z,98998.38
2023-02-01T00:11:24.132Z,99000.28
2023-02-01T00:13:25.829Z,99003.00
2023-02-01T00:15:27.560Z,98999.44
2023-02-01T00:17:29.180Z,99005.72
2023-02-01T00:19:30.914Z,98996.72
2023-02-01T00:21:33.119Z,98995.06
2023-02-01T00:23:39.655Z,98997.31
2023-02-01T00:25:41.310Z,99004.66
2023-02-01T00:27:46.159Z,99001.09
2023-02-01T00:29:48.061Z,98992.50
2023-02-01T00:31:53.769Z,98988.94
2023-02-01T00:33:55.300Z,98981.88
2023-02-01T00:35:58.824Z,98969.13
2023-02-01T00:38:01.249Z,98984.34
2023-02-01T00:40:03.621Z,98986.22
2023-02-01T00:42:05.169Z,98978.06
2023-02-01T00:44:07.350Z,98976.19
2023-02-01T00:46:09.553Z,98973.47
2023-02-01T00:48:11.448Z,98981.63
2023-02-01T00:50:15.424Z,98970.53
2023-02-01T00:52:17.177Z,98962.16
2023-02-01T00:54:18.924Z,98966.75
2023-02-01T00:56:21.506Z,98964.88
2023-02-01T00:58:24.974Z,98967.59
2023-02-01T01:00:29.800Z,98971.34
2023-02-01T01:02:33.950Z,98971.59
2023-02-01T01:04:35.477Z,98978.06
2023-02-01T01:06:37.290Z,98970.75
2023-02-01T01:08:39.978Z,98962.00
2023-02-01T01:10:42.362Z,98977.84
2023-02-01T01:12:43.867Z,98978.69
2023-02-01T01:14:45.339Z,98975.13
2023-02-01T01:16:46.959Z,98971.59
2023-02-01T01:18:49.466Z,98975.97
2023-02-01T01:20:51.111Z,98977.63
2023-02-01T01:22:52.606Z,98981.41
2023-02-01T01:24:54.150Z,98987.66
2023-02-01T01:26:55.876Z,98981.41
2023-02-01T01:28:59.186Z,98981.75
2023-02-01T01:31:01.099Z,98975.50
2023-02-01T01:33:03.278Z,98978.00
2023-02-01T01:35:05.414Z,98969.84
2023-02-01T01:37:09.972Z,98967.97
2023-02-01T01:39:11.581Z,98961.91
2023-02-01T01:41:17.202Z,98966.28
2023-02-01T01:43:22.159Z,98978.00
2023-02-01T01:45:36.704Z,98967.13
2023-02-01T01:47:49.407Z,98972.56
2023-02-01T01:49:53.940Z,98971.72
2023-02-01T01:52:01.638Z,98971.72
2023-02-01T01:54:09.287Z,98970.06
2023-02-01T01:56:11.784Z,98972.56
2023-02-01T01:58:18.591Z,98965.00
2023-02-01T02:00:22.235Z,98965.84
2023-02-01T02:02:27.085Z,98970.44
2023-02-01T02:04:29.023Z,98962.28
2023-02-01T02:06:46.476Z,98965.84
2023-02-01T02:08:47.983Z,98957.69
2023-02-01T02:11:03.359Z,98946.59
2023-02-01T02:13:07.885Z,98948.47
2023-02-01T02:15:12.225Z,98941.97
2023-02-01T02:17:37.640Z,98943.66
2023-02-01T02:19:50.730Z,98940.69
2023-02-01T02:22:23.274Z,98944.47
2023-02-01T02:24:42.692Z,98946.13
2023-02-01T02:26:48.752Z,98949.88
2023-02-01T02:29:07.406Z,98945.28
2023-02-01T02:31:30.660Z,98938.22
2023-02-01T02:33:40.744Z,98939.03
2023-02-01T02:35:51.843Z,98939.84
2023-02-01T02:38:09.961Z,98936.09
2023-02-01T02:41:00.346Z,98931.72
2023-02-01T02:43:47.614Z,98926.25
2023-02-01T02:46:14.922Z,98928.16
2023-02-01T02:48:53.018Z,98923.56
2023-02-01T02:51:19.409Z,98918.94
2023-02-01T02:53:47.176Z,98912.91
2023-02-01T02:55:52.079Z,98909.97
2023-02-01T02:58:17.088Z,98899.94
2023-02-01T03:00:41.666Z,98904.31
2023-02-01T03:03:02.485Z,98902.66
2023-02-01T03:05:04.524Z,98897.22
2023-02-01T03:07:45.545Z,98894.50
2023-02-01T03:09:49.741Z,98893.44
2023-02-01T03:12:19.577Z,98900.53
2023-02-01T03:14:23.967Z,98907.84
2023-02-01T03:16:49.553Z,98901.59
2023-02-01T03:19:06.488Z,98885.88
2023-02-01T03:21:16.929Z,98879.59
2023-02-01T03:23:22.971Z,98885.88
2023-02-01T03:25:29.955Z,98885.28
2023-02-01T03:28:12.543Z,98873.34
2023-02-01T03:30:31.016Z,98904.31
2023-02-01T03:32:54.681Z,98897.81
2023-02-01T03:34:56.728Z,98899.47
2023-02-01T03:37:03.929Z,98900.53
2023-02-01T03:39:12.813Z,98901.34
2023-02-01T03:41:41.453Z,98887.19
2023-02-01T03:44:10.664Z,98889.66
2023-02-01T03:46:21.924Z,98883.63
2023-02-01T03:48:28.229Z,98876.06
2023-02-01T03:50:34.645Z,98880.66
2023-02-01T03:52:40.896Z,98874.41
2023-02-01T03:54:44.964Z,98871.72
2023-02-01T03:56:48.808Z,98884.00
2023-02-01T03:59:00.006Z,98882.09
2023-02-01T04:01:05.824Z,98890.47
2023-02-01T04:03:11.914Z,98889.66
2023-02-01T04:05:13.427Z,98884.22
2023-02-01T04:07:21.915Z,98871.72
2023-02-01T04:09:23.552Z,98871.72
2023-02-01T04:11:25.238Z,98872.75
2023-02-01T04:13:26.908Z,98877.94
2023-02-01T04:15:28.453Z,98867.06
2023-02-01T04:17:30.621Z,98862.47
2023-02-01T04:19:32.187Z,98869.78
2023-02-01T04:21:33.905Z,98864.13
2023-02-01T04:23:38.896Z,98862.47
2023-02-01T04:25:40.638Z,98867.91
2023-02-01T04:27:42.796Z,98867.06
2023-02-01T04:29:46.141Z,98866.25
2023-02-01T04:31:47.839Z,98871.72
2023-02-01T04:33:49.442Z,98868.16
2023-02-01T04:35:51.175Z,98857.50
2023-02-01T04:37:53.992Z,98861.03
2023-02-01T04:39:56.040Z,98866.72
2023-02-01T04:42:00.380Z,98869.44
2023-02-01T04:44:01.904Z,98870.50
2023-02-01T04:46:03.582Z,98873.22
2023-02-01T04:48:05.507Z,98866.94
2023-02-01T04:50:08.746Z,98864.47
2023-02-01T04:52:10.502Z,98865.06
2023-02-01T04:54:14.816Z,98857.16
2023-02-01T04:56:17.619Z,98848.16
2023-02-01T04:58:19.562Z,98858.19
2023-02-01T05:00:21.961Z,98848.16
2023-02-01T05:02:23.744Z,98853.84
2023-02-01T05:04:25.550Z,98844.59
2023-02-01T05:06:27.919Z,98841.06
2023-02-01T05:08:30.552Z,98842.97
2023-02-01T05:10:32.116Z,98845.91
2023-02-01T05:12:52.334Z,98847.78
2023-02-01T05:14:54.076Z,98853.22
2023-02-01T05:16:55.636Z,98856.19
2023-02-01T05:19:00.915Z,98851.56
2023-02-01T05:21:05.506Z,98856.19
2023-02-01T05:23:07.376Z,98854.50
2023-02-01T05:25:09.094Z,98856.19
2023-02-01T05:27:10.695Z,98857.00
2023-02-01T05:29:12.702Z,98853.47
2023-02-01T05:31:14.378Z,98845.56
2023-02-01T05:33:19.047Z,98848.28
2023-02-01T05:35:21.054Z,98846.34
2023-02-01T05:37:22.779Z,98834.91
2023-02-01T05:39:24.512Z,98840.34
2023-02-01T05:41:28.519Z,98846.00
2023-02-01T05:43:30.073Z,98836.78
2023-02-01T05:45:31.754Z,98831.59
2023-02-01T05:47:35.669Z,98830.53
2023-02-01T05:49:37.174Z,98827.81
2023-02-01T05:51:38.913Z,98832.19
2023-02-01T05:53:40.656Z,98830.53
2023-02-01T05:55:42.853Z,98825.31
2023-02-01T05:57:44.498Z,98826.41
2023-02-01T05:59:49.182Z,98826.63
2023-02-01T06:01:50.846Z,98820.13
2023-02-01T06:03:52.447Z,98828.50
2023-02-01T06:05:57.247Z,98837.72
2023-02-01T06:07:59.325Z,98844.00
2023-02-01T06:10:01.069Z,98839.84
2023-02-01T06:12:04.356Z,98836.28
2023-02-01T06:14:08.845Z,98840.91
2023-02-01T06:16:12.771Z,98822.34
2023-02-01T06:18:16.825Z,98825.63
2023-02-01T06:20:18.533Z,98824.84
2023-02-01T06:22:20.167Z,98831.31
2023-02-01T06:24:24.600Z,98835.09
2023-02-01T06:26:26.254Z,98830.28
2023-02-01T06:28:29.392Z,98827.75
2023-02-01T06:30:31.510Z,98834.88
2023-02-01T06:32:34.271Z,98825.88
2023-02-01T06:34:38.177Z,98819.84
2023-02-01T06:36:40.318Z,98815.47
2023-02-01T06:38:43.625Z,98822.78
2023-02-01T06:40:46.004Z,98804.84
2023-02-01T06:42:49.482Z,98820.31
2023-02-01T06:44:51.065Z,98817.84
2023-02-01T06:46:52.840Z,98831.44
2023-02-01T06:48:55.286Z,98819.13
2023-02-01T06:50:57.195Z,98834.59
2023-02-01T06:52:58.690Z,98832.94
2023-02-01T06:55:00.336Z,98832.09
2023-02-01T06:57:02.048Z,98835.66
2023-02-01T06:59:07.894Z,98823.94
2023-02-01T07:01:11.109Z,98814.16
2023-02-01T07:03:14.038Z,98833.16
2023-02-01T07:05:16.053Z,98833.38
2023-02-01T07:07:18.301Z,98831.50
2023-02-01T07:09:20.003Z,98841.53
2023-02-01T07:11:21.691Z,98841.53
2023-02-01T07:13:24.125Z,98836.09
2023-02-01T07:15:25.674Z,98829.88
2023-02-01T07:17:27.464Z,98831.50
2023-02-01T07:19:29.119Z,98826.31
2023-02-01T07:21:30.788Z,98830.91
2023-02-01T07:23:32.800Z,98830.06
2023-02-01T07:25:35.608Z,98837.38
2023-02-01T07:27:37.756Z,98833.88
2023-02-01T07:29:39.344Z,98831.16
2023-02-01T07:31:44.272Z,98821.34
2023-02-01T07:33:46.425Z,98824.28
2023-02-01T07:35:49.215Z,98825.09
2023-02-01T07:37:54.022Z,98826.75
2023-02-01T07:39:55.585Z,98834.31
2023-02-01T07:41:57.590Z,98824.28
2023-02-01T07:43:59.349Z,98825.34
2023-02-01T07:46:01.629Z,98822.63
2023-02-01T07:48:03.992Z,98808.00
2023-02-01T07:50:05.682Z,98806.09
2023-02-01T07:52:07.535Z,98809.63
2023-02-01T07:54:09.282Z,98808.59
2023-02-01T07:56:17.040Z,98801.03
2023-02-01T07:58:18.631Z,98810.00
2023-02-01T08:00:39.412Z,98819.59
2023-02-01T08:02:41.016Z,98817.91
2023-02-01T08:04:42.744Z,98807.66
2023-02-01T08:06:44.705Z,98812.88
2023-02-01T08:08:47.875Z,98802.84
2023-02-01T08:10:49.320Z,98789.84
2023-02-01T08:12:52.855Z,98778.97
2023-02-01T08:14:54.866Z,98788.78
2023-02-01T08:16:56.399Z,98792.09
2023-02-01T08:18:58.125Z,98803.31
2023-02-01T08:21:04.674Z,98805.81
2023-02-01T08:23:09.912Z,98809.34
2023-02-01T08:25:15.279Z,98821.63
2023-02-01T08:27:16.924Z,98820.59
2023-02-01T08:29:18.835Z,98809.25
2023-02-01T08:31:23.798Z,98815.28
2023-02-01T08:33:26.009Z,98810.44
2023-02-01T08:35:41.525Z,98827.13
2023-02-01T08:37:44.727Z,98832.09
2023-02-01T08:39:47.789Z,98838.34
2023-02-01T08:42:09.338Z,98839.31
2023-02-01T08:44:11.003Z,98838.00
2023-02-01T08:46:13.095Z,98845.47
2023-02-01T08:48:14.959Z,98839.81
2023-02-01T08:50:17.382Z,98833.06
2023-02-01T08:52:19.233Z,98832.63
2023-02-01T08:54:23.399Z,98837.81
2023-02-01T08:56:24.995Z,98844.44
2023-02-01T08:58:26.519Z,98849.66
2023-02-01T09:00:28.142Z,98846.69
2023-02-01T09:02:29.665Z,98839.72
2023-02-01T09:04:31.464Z,98849.53
2023-02-01T09:06:33.420Z,98834.63
2023-02-01T09:08:36.206Z,98848.97
2023-02-01T09:10:38.143Z,98860.66
2023-02-01T09:12:42.643Z,98867.53
2023-02-01T09:14:44.350Z,98866.84
2023-02-01T09:16:45.896Z,98870.97
2023-02-01T09:18:56.139Z,98873.81
2023-02-01T09:21:09.676Z,98879.16
2023-02-01T09:23:11.348Z,98876.53
2023-02-01T09:25:13.109Z,98881.28
2023-02-01T09:27:15.379Z,98894.16
2023-02-01T09:29:17.245Z,98897.25
2023-02-01T09:31:20.010Z,98895.13
2023-02-01T09:33:22.333Z,98890.03
2023-02-01T09:35:23.971Z,98902.94
2023-02-01T09:37:25.605Z,98901.63
2023-02-01T09:39:27.255Z,98906.63
2023-02-01T09:41:59.495Z,98907.78
2023-02-01T09:44:08.577Z,98895.84
2023-02-01T09:46:19.647Z,98905.19
2023-02-01T09:48:31.116Z,98893.00
2023-02-01T09:50:39.316Z,98906.72
2023-02-01T09:52:59.867Z,98912.53
2023-02-01T09:55:07.443Z,98922.94
2023-02-01T09:57:15.855Z,98924.59
2023-02-01T09:59:45.842Z,98918.94
2023-02-01T10:01:47.768Z,98926.59
2023-02-01T10:03:52.928Z,98925.06
2023-02-01T10:06:19.537Z,98917.00
2023-02-01T10:08:41.059Z,98929.31
2023-02-01T10:10:49.370Z,98933.22
2023-02-01T10:13:14.570Z,98929.66
2023-02-01T10:15:33.157Z,98919.59
2023-02-01T10:18:01.577Z,98923.16
2023-02-01T10:20:41.073Z,98925.66
2023-02-01T10:23:11.462Z,98922.94
2023-02-01T10:25:20.220Z,98915.38
2023-02-01T10:27:34.804Z,98919.84
2023-02-01T10:29:45.655Z,98924.00
2023-02-01T10:31:48.183Z,98910.16
2023-02-01T10:33:58.551Z,98915.34
2023-02-01T10:36:16.378Z,98912.16
2023-02-01T10:38:26.698Z,98911.31
2023-02-01T10:40:28.703Z,98920.06
2023-02-01T10:42:32.089Z,98912.50
2023-02-01T10:44:41.251Z,98912.84
2023-02-01T10:46:43.427Z,98913.41
2023-02-01T10:48:46.579Z,98916.97
2023-02-01T10:51:05.829Z,98904.44
2023-02-01T10:53:19.757Z,98913.41
2023-02-01T10:55:41.369Z,98905.25
2023-02-01T10:57:53.379Z,98899.56
2023-02-01T10:59:57.907Z,98906.06
2023-02-01T11:02:20.933Z,98897.91
2023-02-01T11:04:27.319Z,98889.50
2023-02-01T11:06:36.043Z,98895.16
2023-02-01T11:08:49.764Z,98898.47
2023-02-01T11:11:01.660Z,98885.47
2023-02-01T11:13:07.105Z,98882.47
2023-02-01T11:15:20.956Z,98868.38
2023-02-01T11:17:29.629Z,98869.78
2023-02-01T11:19:31.680Z,98864.09
2023-02-01T11:21:35.239Z,98858.16
2023-02-01T11:23:43.297Z,98857.09
2023-02-01T11:25:55.335Z,98866.69
2023-02-01T11:27:57.917Z,98858.25
2023-02-01T11:30:03.175Z,98864.06
2023-02-01T11:32:06.039Z,98857.88
2023-02-01T11:34:23.620Z,98858.19
2023-02-01T11:36:38.703Z,98844.31
2023-02-01T11:38:40.216Z,98853.91
2023-02-01T11:40:42.069Z,98856.97
2023-02-01T11:43:08.178Z,98854.00
2023-02-01T11:45:21.531Z,98841.78
2023-02-01T11:47:39.315Z,98846.16
2023-02-01T11:49:41.032Z,98851.59
2023-02-01T11:51:55.982Z,98850.28
2023-02-01T11:54:32.870Z,98856.81
2023-02-01T11:56:45.420Z,98846.75
2023-02-01T11:59:05.249Z,98857.66
2023-02-01T12:01:10.052Z,98853.00
2023-02-01T12:03:32.727Z,98856.00
2023-02-01T12:05:52.005Z,98869.88
2023-02-01T12:08:39.136Z,98854.84
2023-02-01T12:10:59.105Z,98836.31
2023-02-01T12:13:22.761Z,98839.28
2023-02-01T12:16:14.336Z,98838.97
2023-02-01T12:18:45.022Z,98835.06
2023-02-01T12:20:59.264Z,98832.94
2023-02-01T12:23:16.165Z,98832.09
2023-02-01T12:25:40.777Z,98827.47
2023-02-01T12:27:55.108Z,98832.09
2023-02-01T12:30:35.458Z,98832.69
2023-02-01T12:33:10.872Z,98817.97
2023-02-01T12:35:33.830Z,98815.47
2023-02-01T12:38:14.335Z,98806.81
2023-02-01T12:40:44.689Z,98804.94
2023-02-01T12:43:02.977Z,98813.09
2023-02-01T12:45:24.981Z,98802.19
2023-02-01T12:47:40.396Z,98793.75
2023-02-01T12:50:16.306Z,98798.38
2023-02-01T12:52:27.281Z,98800.06
2023-02-01T12:54:45.102Z,98795.16
2023-02-01T12:56:56.720Z,98790.53
2023-02-01T12:59:06.200Z,98791.38
2023-02-01T13:01:36.069Z,98788.88
2023-02-01T13:03:43.591Z,98792.22
2023-02-01T13:05:58.932Z,98791.38
2023-02-01T13:08:10.379Z,98787.56
2023-02-01T13:10:35.634Z,98779.63
2023-02-01T13:13:04.002Z,98789.72
2023-02-01T13:15:18.480Z,98776.91
2023-02-01T13:17:27.078Z,98785.34
2023-02-01T13:19:44.536Z,98780.47
2023-02-01T13:22:02.970Z,98788.66
2023-02-01T13:24:05.065Z,98796.00
2023-02-01T13:26:07.277Z,98782.09
2023-02-01T13:28:17.688Z,98793.00
2023-02-01T13:30:25.125Z,98786.75
2023-02-01T13:33:50.853Z,98785.94
2023-02-01T13:35:08.209Z,98771.94
2023-02-01T13:37:34.794Z,98779.28
2023-02-01T13:40:14.202Z,98791.28
2023-02-01T13:42:21.034Z,98769.72
2023-02-01T13:44:32.281Z,98781.94
2023-02-01T13:46:46.633Z,98768.31
2023-02-01T13:48:57.942Z,98765.00
2023-02-01T13:51:01.333Z,98765.25
2023-02-01T13:53:23.383Z,98764.69
2023-02-01T13:55:32.122Z,98766.59
2023-02-01T13:57:38.636Z,98777.50
2023-02-01T13:59:42.144Z,98769.31
2023-02-01T14:01:43.878Z,98763.28
2023-02-01T14:03:48.901Z,98754.00
2023-02-01T14:05:50.905Z,98769.53
2023-02-01T14:08:07.678Z,98759.94
2023-02-01T14:10:55.289Z,98758.31
2023-02-01T14:13:23.628Z,98760.47
2023-02-01T14:15:29.140Z,98762.59
2023-02-01T14:17:38.755Z,98766.41
2023-02-01T14:19:42.677Z,98757.13
2023-02-01T14:22:02.161Z,98767.25
2023-02-01T14:24:23.879Z,98771.28
2023-02-01T14:26:31.725Z,98758.72
2023-02-01T14:28:33.431Z,98760.59
2023-02-01T14:30:34.979Z,98765.47
2023-02-01T14:32:42.847Z,98756.47
2023-02-01T14:34:47.599Z,98756.47
2023-02-01T14:36:58.905Z,98754.00
2023-02-01T14:39:00.505Z,98754.22
2023-02-01T14:41:32.985Z,98746.31
2023-02-01T14:44:12.762Z,98753.09
2023-02-01T14:46:14.405Z,98757.97
2023-02-01T14:48:18.745Z,98755.22
2023-02-01T14:50:38.343Z,98753.00
2023-02-01T14:52:48.216Z,98754.31
2023-02-01T14:55:03.158Z,98769.81
2023-02-01T14:57:05.519Z,98765.69
2023-02-01T14:59:17.417Z,98761.91
2023-02-01T15:01:21.993Z,98762.75
2023-02-01T15:03:30.547Z,98764.63
2023-02-01T15:05:34.950Z,98760.25
2023-02-01T15:07:36.503Z,98762.97
2023-02-01T15:09:49.127Z,98750.09
2023-02-01T15:12:23.916Z,98749.03
2023-02-01T15:14:29.828Z,98756.59
2023-02-01T15:16:44.095Z,98757.06
2023-02-01T15:18:46.433Z,98739.66
2023-02-01T15:21:09.259Z,98736.13
2023-02-01T15:23:19.939Z,98727.09
2023-02-01T15:25:25.641Z,98734.47
2023-02-01T15:27:29.804Z,98731.41
2023-02-01T15:29:34.266Z,98727.84
2023-02-01T15:31:48.276Z,98734.38
2023-02-01T15:33:59.587Z,98731.88
2023-02-01T15:36:07.090Z,98730.47
2023-02-01T15:38:30.287Z,98735.59
2023-02-01T15:40:33.441Z,98734.78
2023-02-01T15:42:35.246Z,98736.66
2023-02-01T15:44:47.091Z,98735.84
2023-02-01T15:46:51.847Z,98741.72
2023-02-01T15:48:55.588Z,98743.66
2023-02-01T15:50:57.311Z,98741.97
2023-02-01T15:53:01.305Z,98735.97
2023-02-01T15:55:07.917Z,98744.34
2023-02-01T15:57:09.771Z,98754.44
2023-02-01T15:59:18.284Z,98747.31
2023-02-01T16:01:20.816Z,98754.94
2023-02-01T16:03:42.140Z,98750.53
2023-02-01T16:05:45.702Z,98749.13
2023-02-01T16:08:04.801Z,98746.66
2023-02-01T16:10:25.757Z,98733.53
2023-02-01T16:12:39.685Z,98747.13
2023-02-01T16:14:41.527Z,98744.66
2023-02-01T16:16:49.937Z,98746.56
2023-02-01T16:18:51.540Z,98739.44
2023-02-01T16:20:53.806Z,98736.72
2023-02-01T16:22:57.973Z,98736.72
2023-02-01T16:24:59.649Z,98736.13
2023-02-01T16:27:01.203Z,98741.00
2023-02-01T16:29:07.163Z,98732.25
2023-02-01T16:31:22.922Z,98734.97
2023-02-01T16:33:25.008Z,98733.56
2023-02-01T16:35:31.602Z,98721.84
2023-02-01T16:37:40.084Z,98741.13
2023-02-01T16:39:41.971Z,98739.50
2023-02-01T16:41:43.885Z,98737.00
2023-02-01T16:43:46.114Z,98732.84
2023-02-01T16:45:49.375Z,98741.03
2023-02-01T16:47:55.447Z,98735.84
2023-02-01T16:49:57.121Z,98740.69
2023-02-01T16:52:00.169Z,98731.94
2023-02-01T16:54:02.302Z,98726.50
2023-02-01T16:56:16.480Z,98728.63
2023-02-01T16:58:18.340Z,98717.72
2023-02-01T17:00:25.496Z,98736.22
2023-02-01T17:02:30.171Z,98732.91
2023-02-01T17:04:32.949Z,98726.63
2023-02-01T17:06:37.766Z,98723.69
2023-02-01T17:08:43.183Z,98733.16
2023-02-01T17:10:44.787Z,98735.03
2023-02-01T17:12:47.220Z,98740.50
2023-02-01T17:14:49.515Z,98738.81
2023-02-01T17:17:01.935Z,98736.09
2023-02-01T17:19:10.748Z,98734.47
2023-02-01T17:21:12.724Z,98727.34
2023-02-01T17:23:16.828Z,98740.97
2023-02-01T17:25:21.599Z,98743.44
2023-02-01T17:27:23.583Z,98751.59
2023-02-01T17:29:35.680Z,98746.41
2023-02-01T17:31:50.528Z,98745.81
2023-02-01T17:33:54.769Z,98746.66
2023-02-01T17:35:59.285Z,98750.19
2023-02-01T17:38:06.345Z,98754.81
2023-02-01T17:40:16.206Z,98760.47
2023-02-01T17:42:17.737Z,98763.22
2023-02-01T17:44:19.602Z,98762.16
2023-02-01T17:46:26.911Z,98766.75
2023-02-01T17:48:30.115Z,98767.00
2023-02-01T17:50:36.539Z,98756.94
2023-02-01T17:52:38.045Z,98776.81
2023-02-01T17:54:40.678Z,98783.34
2023-02-01T17:56:42.914Z,98778.69
2023-02-01T17:58:45.152Z,98775.41
2023-02-01T18:00:51.662Z,98769.13
2023-02-01T18:02:53.418Z,98774.56
2023-02-01T18:04:55.771Z,98767.47
2023-02-01T18:07:03.253Z,98769.63
2023-02-01T18:09:04.939Z,98769.63
2023-02-01T18:11:14.387Z,98773.41
2023-02-01T18:13:18.405Z,98771.25
2023-02-01T18:15:26.774Z,98757.06
2023-02-01T18:17:28.421Z,98754.34
2023-02-01T18:19:30.401Z,98758.13
2023-02-01T18:21:43.815Z,98762.75
2023-02-01T18:23:46.081Z,98762.16
2023-02-01T18:25:48.537Z,98758.63
2023-02-01T18:27:55.076Z,98763.22
2023-02-01T18:29:57.150Z,98758.00
2023-02-01T18:31:59.059Z,98759.09
2023-02-01T18:34:04.355Z,98765.38
2023-02-01T18:36:13.229Z,98753.06
2023-02-01T18:38:14.851Z,98762.03
2023-02-01T18:40:25.333Z,98755.78
2023-02-01T18:42:28.646Z,98764.53
2023-02-01T18:44:30.461Z,98761.81
2023-02-01T18:46:34.519Z,98770.19
2023-02-01T18:48:36.277Z,98762.66
2023-02-01T18:50:45.882Z,98765.13
2023-02-01T18:52:50.790Z,98764.28
2023-02-01T18:54:59.531Z,98762.41
2023-02-01T18:57:07.021Z,98765.13
2023-02-01T18:59:11.611Z,98758.00
2023-02-01T19:01:18.727Z,98756.13
2023-02-01T19:03:26.086Z,98762.88
2023-02-01T19:05:30.883Z,98763.47
2023-02-01T19:07:32.617Z,98762.41
2023-02-01T19:09:39.713Z,98750.69
2023-02-01T19:11:41.375Z,98765.97
2023-02-01T19:13:46.201Z,98762.97
2023-02-01T19:15:50.755Z,98761.34
2023-02-01T19:17:55.316Z,98760.50
2023-02-01T19:19:58.613Z,98774.34
2023-02-01T19:22:03.992Z,98759.94
2023-02-01T19:24:08.253Z,98773.53
2023-02-01T19:26:16.018Z,98760.72
2023-02-01T19:28:17.733Z,98760.16
2023-02-01T19:30:25.673Z,98747.63
2023-02-01T19:32:27.484Z,98750.34
2023-02-01T19:34:29.275Z,98750.34
2023-02-01T19:36:31.215Z,98745.97
2023-02-01T19:38:34.098Z,98747.63
2023-02-01T19:40:36.113Z,98749.53
2023-02-01T19:42:37.934Z,98745.13
2023-02-01T19:44:39.798Z,98738.84
2023-02-01T19:46:44.108Z,98735.09
2023-02-01T19:48:48.914Z,98738.84
2023-02-01T19:50:52.375Z,98730.69
2023-02-01T19:53:09.730Z,98727.97
2023-02-01T19:55:14.533Z,98739.69
2023-02-01T19:57:16.169Z,98729.28
2023-02-01T19:59:22.858Z,98736.84
2023-02-01T20:01:25.508Z,98736.03
2023-02-01T20:03:32.181Z,98732.72
2023-02-01T20:05:36.818Z,98744.44
2023-02-01T20:07:38.703Z,98735.44
2023-02-01T20:09:43.497Z,98731.09
2023-02-01T20:11:45.629Z,98737.59
2023-02-01T20:13:50.595Z,98737.00
2023-02-01T20:15:58.489Z,98732.63
2023-02-01T20:18:00.316Z,98728.00
2023-02-01T20:20:03.829Z,98734.50
2023-02-01T20:22:05.579Z,98734.75
2023-02-01T20:24:08.363Z,98734.75
2023-02-01T20:26:12.260Z,98739.13
2023-02-01T20:28:21.384Z,98744.56
2023-02-01T20:30:26.293Z,98757.09
2023-02-01T20:32:28.176Z,98754.38
2023-02-01T20:34:31.069Z,98756.25
2023-02-01T20:36:35.651Z,98767.13
2023-02-01T20:38:37.225Z,98777.81
2023-02-01T20:40:41.032Z,98769.63
2023-02-01T20:42:42.731Z,98774.50
2023-02-01T20:44:44.384Z,98784.28
2023-02-01T20:46:50.677Z,98781.56
2023-02-01T20:48:52.461Z,98791.88
2023-02-01T20:50:57.519Z,98776.59
2023-02-01T20:52:59.087Z,98769.53
2023-02-01T20:55:00.695Z,98785.00
2023-02-01T20:57:02.420Z,98770.56
2023-02-01T20:59:04.104Z,98769.53
2023-02-01T21:01:06.162Z,98774.38
2023-02-01T21:03:07.914Z,98774.38
2023-02-01T21:05:09.817Z,98778.16
2023-02-01T21:07:11.546Z,98778.97
2023-02-01T21:09:13.512Z,98777.56
2023-02-01T21:11:15.868Z,98758.53
2023-02-01T21:13:17.649Z,98769.63
2023-02-01T21:15:25.773Z,98775.91
2023-02-01T21:17:31.415Z,98777.78
2023-02-01T21:19:42.910Z,98791.63
2023-02-01T21:21:44.844Z,98790.19
2023-02-01T21:23:46.738Z,98779.56
2023-02-01T21:25:51.344Z,98786.91
2023-02-01T21:27:53.151Z,98785.22
2023-02-01T21:29:54.886Z,98788.19
2023-02-01T21:31:56.695Z,98789.03
2023-02-01T21:34:01.405Z,98791.97
2023-02-01T21:36:03.451Z,98793.84
2023-02-01T21:38:05.082Z,98787.63
2023-02-01T21:40:07.211Z,98786.78
2023-02-01T21:42:17.683Z,98778.00
2023-02-01T21:44:24.539Z,98768.22
2023-02-01T21:46:29.264Z,98781.81
2023-02-01T21:48:31.055Z,98766.78
2023-02-01T21:50:52.726Z,98772.22
2023-02-01T21:52:54.344Z,98770.56
2023-02-01T21:54:59.480Z,98758.63
2023-02-01T21:57:01.700Z,98756.13
2023-02-01T21:59:03.498Z,98750.69
2023-02-01T22:01:05.424Z,98757.22
2023-02-01T22:03:07.266Z,98740.31
2023-02-01T22:05:09.904Z,98761.00
2023-02-01T22:07:12.109Z,98758.06
2023-02-01T22:09:19.837Z,98745.50
2023-02-01T22:11:21.882Z,98747.19
2023-02-01T22:13:23.707Z,98747.66
2023-02-01T22:15:29.131Z,98744.94
2023-02-01T22:17:31.722Z,98747.66
2023-02-01T22:19:33.400Z,98753.06
2023-02-01T22:21:35.179Z,98753.06
2023-02-01T22:23:36.939Z,98743.03
2023-02-01T22:25:38.557Z,98743.84
2023-02-01T22:28:30.131Z,98736.78
2023-02-01T22:30:02.568Z,98738.41
2023-02-01T22:32:07.584Z,98735.47
2023-02-01T22:34:12.911Z,98730.25
2023-02-01T22:36:17.057Z,98737.34
2023-02-01T22:38:18.787Z,98734.63
2023-02-01T22:40:20.848Z,98739.25
2023-02-01T22:42:22.401Z,98737.59
2023-02-01T22:44:24.115Z,98738.41
2023-02-01T22:46:27.321Z,98740.06
2023-02-01T22:48:31.566Z,98740.91
2023-02-01T22:50:33.128Z,98743.38
2023-02-01T22:52:34.781Z,98739.81
2023-02-01T22:54:36.769Z,98745.03
2023-02-01T22:56:38.376Z,98745.88
2023-02-01T22:58:40.536Z,98745.03
2023-02-01T23:00:42.103Z,98738.53
2023-02-01T23:02:44.492Z,98742.91
2023-02-01T23:04:48.460Z,98745.38
2023-02-01T23:06:52.006Z,98750.22
2023-02-01T23:08:58.473Z,98764.66
2023-02-01T23:11:06.963Z,98751.91
2023-02-01T23:13:08.640Z,98756.25
2023-02-01T23:15:12.470Z,98755.19
2023-02-01T23:17:14.029Z,98764.19
2023-02-01T23:19:16.876Z,98758.75
2023-02-01T23:21:21.537Z,98759.13
2023-02-01T23:23:23.099Z,98759.13
2023-02-01T23:25:25.023Z,98767.03
2023-02-01T23:27:27.231Z,98779.56
2023-02-01T23:29:29.185Z,98792.56
2023-02-01T23:31:33.161Z,98827.91
2023-02-01T23:33:35.693Z,98836.06
2023-02-01T23:35:37.499Z,98823.09
2023-02-01T23:37:42.675Z,98836.06
2023-02-01T23:39:44.465Z,98832.53
2023-02-01T23:41:45.976Z,98816.44
2023-02-01T23:43:59.947Z,98817.03
2023-02-01T23:46:01.863Z,98822.13
2023-02-01T23:48:03.691Z,98829.44
2023-02-01T23:50:05.556Z,98821.75
2023-02-01T23:52:07.234Z,98818.19
2023-02-01T23:54:10.958Z,98818.19
2023-02-01T23:56:19.746Z,98814.06
2023-02-01T23:58:22.434Z,98808.03
